createdAt,value
2017-11-08T00:01:44.943Z,101554.27
2017-11-08T00:04:10.746Z,101548.19
2017-11-08T00:06:36.541Z,101546.00
2017-11-08T00:09:02.396Z,101537.67
2017-11-08T00:11:28.181Z,101540.46
2017-11-08T00:13:53.978Z,101533.83
2017-11-08T00:16:19.814Z,101538.66
2017-11-08T00:18:45.598Z,101533.55
2017-11-08T00:21:11.413Z,101528.62
2017-11-08T00:23:40.154Z,101532.08
2017-11-08T00:26:05.949Z,101534.05
2017-11-08T00:28:31.744Z,101534.67
2017-11-08T00:30:57.557Z,101531.50
2017-11-08T00:33:23.405Z,101531.06
2017-11-08T00:35:49.209Z,101528.64
2017-11-08T00:38:15.025Z,101525.48
2017-11-08T00:40:40.866Z,101523.81
2017-11-08T00:43:06.654Z,101523.40
2017-11-08T00:45:32.449Z,101523.41
2017-11-08T00:47:58.242Z,101521.56
2017-11-08T00:50:24.026Z,101525.84
2017-11-08T00:52:49.823Z,101518.95
2017-11-08T00:55:15.610Z,101524.19
2017-11-08T00:57:47.345Z,101526.32
2017-11-08T01:00:15.034Z,101521.05
2017-11-08T01:02:40.873Z,101523.20
2017-11-08T01:05:06.658Z,101522.73
2017-11-08T01:07:32.485Z,101522.05
2017-11-08T01:09:58.301Z,101516.77
2017-11-08T01:12:24.096Z,101517.19
2017-11-08T01:14:49.946Z,101518.73
2017-11-08T01:17:15.737Z,101512.92
2017-11-08T01:19:41.523Z,101502.77
2017-11-08T01:22:07.320Z,101499.73
2017-11-08T01:24:33.113Z,101502.05
2017-11-08T01:26:58.902Z,101496.42
2017-11-08T01:29:24.693Z,101495.69
2017-11-08T01:31:50.520Z,101493.07
2017-11-08T01:34:16.345Z,101497.07
2017-11-08T01:36:42.170Z,101493.70
2017-11-08T01:39:07.965Z,101495.52
2017-11-08T01:41:39.929Z,101481.77
2017-11-08T01:44:05.726Z,101486.61
2017-11-08T01:46:31.545Z,101485.45
2017-11-08T01:48:59.298Z,101481.17
2017-11-08T01:51:25.105Z,101482.56
2017-11-08T01:53:50.950Z,101477.37
2017-11-08T01:56:16.765Z,101479.89
2017-11-08T01:58:42.597Z,101470.44
2017-11-08T02:01:08.407Z,101466.63
2017-11-08T02:03:34.198Z,101472.02
2017-11-08T02:06:00.006Z,101460.87
2017-11-08T02:08:25.801Z,101471.30
2017-11-08T02:10:51.595Z,101468.61
2017-11-08T02:13:17.388Z,101471.14
2017-11-08T02:15:46.079Z,101468.31
2017-11-08T02:18:13.725Z,101474.50
2017-11-08T02:20:39.562Z,101470.93
2017-11-08T02:23:05.349Z,101471.33
2017-11-08T02:25:31.182Z,101462.81
2017-11-08T02:27:56.986Z,101464.13
2017-11-08T02:30:22.830Z,101467.17
2017-11-08T02:32:48.622Z,101471.61
2017-11-08T02:35:14.421Z,101461.61
2017-11-08T02:37:41.125Z,101458.56
2017-11-08T02:40:06.914Z,101458.42
2017-11-08T02:42:32.712Z,101462.36
2017-11-08T02:44:58.506Z,101460.73
2017-11-08T02:47:24.349Z,101454.88
2017-11-08T02:49:50.177Z,101463.51
2017-11-08T02:52:15.970Z,101460.14
2017-11-08T02:54:41.936Z,101451.44
2017-11-08T02:57:07.718Z,101456.89
2017-11-08T02:59:33.507Z,101456.48
2017-11-08T03:02:00.138Z,101453.77
2017-11-08T03:04:25.956Z,101446.88
2017-11-08T03:06:51.767Z,101450.39
2017-11-08T03:09:17.558Z,101450.64
2017-11-08T03:11:43.345Z,101451.02
2017-11-08T03:14:09.151Z,101450.40
2017-11-08T03:16:35.177Z,101453.74
2017-11-08T03:19:00.969Z,101462.95
2017-11-08T03:21:26.762Z,101462.73
2017-11-08T03:23:52.564Z,101465.26
2017-11-08T03:26:18.363Z,101465.59
2017-11-08T03:28:44.204Z,101472.67
2017-11-08T03:31:09.999Z,101472.65
2017-11-08T03:33:35.794Z,101482.11
2017-11-08T03:36:01.677Z,101476.95
2017-11-08T03:38:27.470Z,101465.23
2017-11-08T03:40:53.303Z,101471.19
2017-11-08T03:43:19.092Z,101466.80
2017-11-08T03:45:44.877Z,101469.50
2017-11-08T03:48:10.673Z,101463.66
2017-11-08T03:50:36.473Z,101458.91
2017-11-08T03:53:02.265Z,101456.52
2017-11-08T03:55:28.066Z,101457.33
2017-11-08T03:57:53.885Z,101456.14
2017-11-08T04:00:19.677Z,101458.34
2017-11-08T04:02:45.476Z,101460.53
2017-11-08T04:05:11.257Z,101460.16
2017-11-08T04:07:37.050Z,101456.69
2017-11-08T04:10:02.842Z,101465.59
2017-11-08T04:12:28.630Z,101458.27
2017-11-08T04:14:54.418Z,101462.28
2017-11-08T04:17:20.405Z,101463.77
2017-11-08T04:19:46.201Z,101467.07
2017-11-08T04:22:11.984Z,101468.02
2017-11-08T04:24:37.777Z,101460.59
2017-11-08T04:27:03.573Z,101467.89
2017-11-08T04:29:29.361Z,101472.51
2017-11-08T04:31:55.216Z,101470.83
2017-11-08T04:34:21.016Z,101469.33
2017-11-08T04:36:46.805Z,101464.78
2017-11-08T04:39:12.621Z,101468.46
2017-11-08T04:41:38.421Z,101467.48
2017-11-08T04:44:04.261Z,101462.17
2017-11-08T04:46:30.069Z,101467.61
2017-11-08T04:48:55.852Z,101471.28
2017-11-08T04:51:21.637Z,101466.95
2017-11-08T04:53:47.422Z,101465.06
2017-11-08T04:56:13.212Z,101467.06
2017-11-08T04:58:39.043Z,101467.00
2017-11-08T05:01:04.834Z,101471.78
2017-11-08T05:03:30.649Z,101480.38
2017-11-08T05:05:56.449Z,101481.28
2017-11-08T05:08:22.244Z,101477.93
2017-11-08T05:10:48.065Z,101477.79
2017-11-08T05:13:13.853Z,101483.30
2017-11-08T05:15:39.687Z,101480.92
2017-11-08T05:18:05.470Z,101467.25
2017-11-08T05:20:31.253Z,101475.88
2017-11-08T05:22:57.050Z,101480.56
2017-11-08T05:25:22.865Z,101477.67
2017-11-08T05:27:48.701Z,101478.42
2017-11-08T05:30:14.491Z,101480.22
2017-11-08T05:32:40.281Z,101495.81
2017-11-08T05:35:06.069Z,101497.45
2017-11-08T05:37:31.921Z,101502.36
2017-11-08T05:39:57.909Z,101511.92
2017-11-08T05:42:23.703Z,101515.27
2017-11-08T05:44:49.600Z,101517.85
2017-11-08T05:47:15.434Z,101522.72
2017-11-08T05:49:41.281Z,101537.17
2017-11-08T05:52:07.100Z,101533.77
2017-11-08T05:54:32.975Z,101533.77
2017-11-08T05:56:58.753Z,101545.35
2017-11-08T05:59:24.574Z,101549.13
2017-11-08T06:01:50.377Z,101548.64
2017-11-08T06:04:16.195Z,101550.33
2017-11-08T06:06:42.013Z,101540.73
2017-11-08T06:09:07.796Z,101540.16
2017-11-08T06:11:33.646Z,101540.89
2017-11-08T06:13:59.430Z,101548.53
2017-11-08T06:16:25.210Z,101541.73
2017-11-08T06:18:51.025Z,101538.30
2017-11-08T06:21:16.802Z,101538.92
2017-11-08T06:23:42.605Z,101537.17
2017-11-08T06:26:08.410Z,101536.53
2017-11-08T06:28:34.241Z,101542.60
2017-11-08T06:31:00.026Z,101542.40
2017-11-08T06:33:25.830Z,101549.06
2017-11-08T06:35:51.646Z,101544.09
2017-11-08T06:38:17.464Z,101541.77
2017-11-08T06:40:43.281Z,101548.30
2017-11-08T06:43:09.105Z,101552.02
2017-11-08T06:45:34.891Z,101554.96
2017-11-08T06:48:00.677Z,101564.58
2017-11-08T06:50:26.465Z,101559.89
2017-11-08T06:52:52.302Z,101564.12
2017-11-08T06:55:18.102Z,101561.09
2017-11-08T06:57:43.937Z,101565.77
2017-11-08T07:00:09.745Z,101567.42
2017-11-08T07:02:35.533Z,101572.23
2017-11-08T07:05:01.351Z,101573.04
2017-11-08T07:07:27.137Z,101572.42
2017-11-08T07:09:52.973Z,101574.83
2017-11-08T07:12:18.784Z,101568.52
2017-11-08T07:14:44.577Z,101565.70
2017-11-08T07:17:10.364Z,101571.61
2017-11-08T07:19:36.145Z,101570.27
2017-11-08T07:22:01.941Z,101570.11
2017-11-08T07:24:27.765Z,101558.39
2017-11-08T07:26:53.553Z,101556.05
2017-11-08T07:29:19.373Z,101552.45
2017-11-08T07:31:45.159Z,101546.63
2017-11-08T07:34:10.941Z,101543.75
2017-11-08T07:36:36.728Z,101537.14
2017-11-08T07:39:02.541Z,101539.12
2017-11-08T07:41:28.328Z,101540.17
2017-11-08T07:43:54.108Z,101542.23
2017-11-08T07:46:19.930Z,101542.90
2017-11-08T07:48:45.710Z,101541.31
2017-11-08T07:51:11.517Z,101541.91
2017-11-08T07:53:37.302Z,101538.53
2017-11-08T07:56:03.100Z,101547.02
2017-11-08T07:58:29.192Z,101558.97
2017-11-08T08:00:54.981Z,101558.97
2017-11-08T08:03:20.802Z,101567.82
2017-11-08T08:05:46.581Z,101570.20
2017-11-08T08:08:12.366Z,101562.11
2017-11-08T08:10:39.017Z,101565.16
2017-11-08T08:13:04.800Z,101560.50
2017-11-08T08:15:30.620Z,101567.14
2017-11-08T08:17:56.429Z,101570.95
2017-11-08T08:20:23.167Z,101570.94
2017-11-08T08:22:48.957Z,101568.62
2017-11-08T08:25:14.785Z,101565.17
2017-11-08T08:27:40.578Z,101576.91
2017-11-08T08:30:06.406Z,101572.41
2017-11-08T08:32:32.202Z,101573.13
2017-11-08T08:34:58.038Z,101576.73
2017-11-08T08:37:23.850Z,101575.44
2017-11-08T08:39:49.665Z,101570.13
2017-11-08T08:42:15.477Z,101568.48
2017-11-08T08:44:41.307Z,101572.70
2017-11-08T08:47:07.129Z,101558.01
2017-11-08T08:49:32.919Z,101568.34
2017-11-08T08:51:59.710Z,101569.37
2017-11-08T08:54:25.536Z,101570.65
2017-11-08T08:56:51.313Z,101566.67
2017-11-08T08:59:17.093Z,101568.75
2017-11-08T09:01:42.869Z,101553.08
2017-11-08T09:04:08.684Z,101547.67
2017-11-08T09:06:34.465Z,101557.28
2017-11-08T09:09:00.281Z,101560.16
2017-11-08T09:11:26.093Z,101561.61
2017-11-08T09:13:51.877Z,101566.90
2017-11-08T09:16:17.901Z,101559.88
2017-11-08T09:18:43.678Z,101568.45
2017-11-08T09:21:09.457Z,101564.80
2017-11-08T09:23:38.292Z,101561.84
2017-11-08T09:26:04.283Z,101568.03
2017-11-08T09:28:30.235Z,101564.80
2017-11-08T09:30:56.208Z,101562.75
2017-11-08T09:33:21.994Z,101560.92
2017-11-08T09:35:47.785Z,101562.36
2017-11-08T09:38:13.569Z,101567.30
2017-11-08T09:40:46.560Z,101559.83
2017-11-08T09:43:12.394Z,101555.63
2017-11-08T09:45:38.250Z,101551.05
2017-11-08T09:48:04.045Z,101547.08
2017-11-08T09:50:30.033Z,101539.73
2017-11-08T09:52:55.817Z,101537.45
2017-11-08T09:55:21.731Z,101532.61
2017-11-08T09:57:47.559Z,101528.00
2017-11-08T10:00:13.487Z,101527.19
2017-11-08T10:02:39.529Z,101535.17
2017-11-08T10:05:05.416Z,101534.86
2017-11-08T10:07:31.288Z,101520.51
2017-11-08T10:09:57.127Z,101521.75
2017-11-08T10:12:22.931Z,101524.60
2017-11-08T10:14:48.786Z,101528.87
2017-11-08T10:17:14.582Z,101524.41
2017-11-08T10:19:41.570Z,101520.15
2017-11-08T10:22:09.141Z,101519.19
2017-11-08T10:24:34.934Z,101531.02
2017-11-08T10:27:00.726Z,101529.41
2017-11-08T10:29:26.517Z,101537.23
2017-11-08T10:31:52.298Z,101534.09
2017-11-08T10:34:18.332Z,101533.62
2017-11-08T10:36:45.215Z,101532.56
2017-11-08T10:39:11.317Z,101536.35
2017-11-08T10:41:37.106Z,101533.99
2017-11-08T10:44:03.030Z,101532.86
2017-11-08T10:46:29.394Z,101529.63
2017-11-08T10:48:55.186Z,101529.04
2017-11-08T10:51:20.971Z,101537.80
2017-11-08T10:53:50.802Z,101538.05
2017-11-08T10:56:16.579Z,101538.96
2017-11-08T10:58:42.651Z,101535.06
2017-11-08T11:01:08.509Z,101545.58
2017-11-08T11:03:34.474Z,101538.05
2017-11-08T11:06:00.305Z,101541.13
2017-11-08T11:08:26.163Z,101546.77
2017-11-08T11:10:51.981Z,101550.95
2017-11-08T11:13:17.978Z,101542.82
2017-11-08T11:15:43.845Z,101541.62
2017-11-08T11:18:09.638Z,101540.09
2017-11-08T11:20:35.494Z,101541.98
2017-11-08T11:23:01.286Z,101545.09
2017-11-08T11:25:27.073Z,101556.02
2017-11-08T11:27:52.857Z,101552.39
2017-11-08T11:30:24.717Z,101550.52
2017-11-08T11:32:50.537Z,101553.38
2017-11-08T11:35:16.323Z,101545.66
2017-11-08T11:37:47.086Z,101550.81
2017-11-08T11:40:12.949Z,101553.44
2017-11-08T11:42:38.746Z,101554.70
2017-11-08T11:45:04.541Z,101549.82
2017-11-08T11:47:30.446Z,101549.28
2017-11-08T11:50:00.453Z,101549.82
2017-11-08T11:52:26.289Z,101556.36
2017-11-08T11:54:52.083Z,101552.45
2017-11-08T11:57:17.885Z,101549.98
2017-11-08T11:59:43.723Z,101554.03
2017-11-08T12:02:09.665Z,101552.43
2017-11-08T12:04:35.772Z,101548.87
2017-11-08T12:07:01.661Z,101546.75
2017-11-08T12:09:27.744Z,101542.98
2017-11-08T12:11:53.661Z,101544.04
2017-11-08T12:14:19.489Z,101541.59
2017-11-08T12:16:45.281Z,101542.36
2017-11-08T12:19:11.074Z,101539.44
2017-11-08T12:21:36.849Z,101538.74
2017-11-08T12:24:03.170Z,101537.16
2017-11-08T12:26:29.970Z,101541.05
2017-11-08T12:28:55.926Z,101544.76
2017-11-08T12:31:21.746Z,101546.05
2017-11-08T12:33:47.530Z,101544.31
2017-11-08T12:36:13.322Z,101550.45
2017-11-08T12:38:39.112Z,101543.27
2017-11-08T12:41:04.918Z,101548.09
2017-11-08T12:43:30.826Z,101550.45
2017-11-08T12:46:00.759Z,101555.08
2017-11-08T12:48:26.555Z,101552.62
2017-11-08T12:50:52.346Z,101552.26
2017-11-08T12:53:18.166Z,101556.61
2017-11-08T12:55:43.959Z,101564.47
2017-11-08T12:58:09.829Z,101559.86
2017-11-08T13:00:35.795Z,101564.69
2017-11-08T13:03:01.730Z,101558.15
2017-11-08T13:05:35.395Z,101560.84
2017-11-08T13:08:01.233Z,101562.61
2017-11-08T13:10:29.034Z,101562.69
2017-11-08T13:12:54.875Z,101559.10
2017-11-08T13:15:20.714Z,101554.24
2017-11-08T13:17:46.516Z,101556.27
2017-11-08T13:20:12.506Z,101558.50
2017-11-08T13:22:38.322Z,101558.11
2017-11-08T13:25:04.112Z,101554.69
2017-11-08T13:27:30.551Z,101560.41
2017-11-08T13:29:56.358Z,101562.98
2017-11-08T13:32:22.313Z,101563.56
2017-11-08T13:34:48.238Z,101564.01
2017-11-08T13:37:14.061Z,101574.98
2017-11-08T13:39:39.943Z,101569.28
2017-11-08T13:42:07.800Z,101569.55
2017-11-08T13:44:33.677Z,101569.80
2017-11-08T13:46:59.500Z,101570.82
2017-11-08T13:49:25.301Z,101577.04
2017-11-08T13:51:51.200Z,101573.09
2017-11-08T13:54:18.690Z,101566.45
2017-11-08T13:56:46.221Z,101558.92
2017-11-08T13:59:15.069Z,101563.95
2017-11-08T14:01:41.508Z,101565.78
2017-11-08T14:04:07.826Z,101562.66
2017-11-08T14:06:33.645Z,101560.02
2017-11-08T14:08:59.439Z,101554.56
2017-11-08T14:11:25.231Z,101558.54
2017-11-08T14:13:51.078Z,101565.18
2017-11-08T14:16:16.870Z,101567.05
2017-11-08T14:18:42.813Z,101575.19
2017-11-08T14:21:08.653Z,101575.13
2017-11-08T14:23:34.451Z,101576.66
2017-11-08T14:26:00.323Z,101576.90
2017-11-08T14:28:26.110Z,101579.39
2017-11-08T14:30:51.908Z,101580.47
2017-11-08T14:33:24.719Z,101588.06
2017-11-08T14:35:50.506Z,101580.95
2017-11-08T14:38:16.295Z,101583.24
2017-11-08T14:40:42.090Z,101587.34
2017-11-08T14:43:07.889Z,101583.94
2017-11-08T14:45:33.690Z,101586.02
2017-11-08T14:48:00.259Z,101586.67
2017-11-08T14:50:26.063Z,101592.33
2017-11-08T14:52:57.892Z,101594.26
2017-11-08T14:55:23.731Z,101591.55
2017-11-08T14:57:49.527Z,101589.92
2017-11-08T15:00:15.325Z,101595.80
2017-11-08T15:02:41.150Z,101599.45
2017-11-08T15:05:06.981Z,101590.84
2017-11-08T15:07:32.764Z,101596.28
2017-11-08T15:09:58.557Z,101595.66
2017-11-08T15:12:30.490Z,101591.47
2017-11-08T15:14:58.110Z,101590.44
2017-11-08T15:17:23.934Z,101589.72
2017-11-08T15:19:49.736Z,101590.58
2017-11-08T15:22:15.550Z,101596.13
2017-11-08T15:24:41.338Z,101594.47
2017-11-08T15:27:07.118Z,101590.14
2017-11-08T15:29:32.897Z,101588.96
2017-11-08T15:31:58.670Z,101594.90
2017-11-08T15:34:26.659Z,101593.30
2017-11-08T15:36:52.450Z,101595.92
2017-11-08T15:39:18.235Z,101596.22
2017-11-08T15:41:50.197Z,101588.27
2017-11-08T15:44:15.991Z,101588.71
2017-11-08T15:46:43.562Z,101589.25
2017-11-08T15:49:15.344Z,101594.20
2017-11-08T15:51:41.138Z,101589.23
2017-11-08T15:54:06.953Z,101596.84
2017-11-08T15:56:32.742Z,101602.92
2017-11-08T15:58:58.585Z,101599.83
2017-11-08T16:01:29.357Z,101595.61
2017-11-08T16:03:55.835Z,101599.78
2017-11-08T16:06:21.642Z,101597.34
2017-11-08T16:08:56.261Z,101598.48
2017-11-08T16:11:22.153Z,101604.16
2017-11-08T16:13:48.083Z,101608.89
2017-11-08T16:16:13.862Z,101605.82
2017-11-08T16:18:39.654Z,101600.06
2017-11-08T16:21:05.573Z,101600.91
2017-11-08T16:23:31.377Z,101607.36
2017-11-08T16:25:57.341Z,101604.31
2017-11-08T16:28:23.122Z,101600.83
2017-11-08T16:30:48.906Z,101598.38
2017-11-08T16:33:15.049Z,101602.69
2017-11-08T16:35:50.175Z,101610.52
2017-11-08T16:38:15.994Z,101609.09
2017-11-08T16:40:41.853Z,101608.24
2017-11-08T16:43:07.642Z,101597.56
2017-11-08T16:45:33.422Z,101603.41
2017-11-08T16:47:59.202Z,101597.71
2017-11-08T16:50:25.019Z,101597.42
2017-11-08T16:52:50.806Z,101593.86
2017-11-08T16:55:17.142Z,101595.85
2017-11-08T16:57:43.022Z,101596.84
2017-11-08T17:00:08.810Z,101601.30
2017-11-08T17:02:35.743Z,101601.30
2017-11-08T17:05:01.546Z,101599.63
2017-11-08T17:07:27.382Z,101611.27
2017-11-08T17:09:53.465Z,101613.39
2017-11-08T17:12:19.250Z,101612.91
2017-11-08T17:14:45.062Z,101620.50
2017-11-08T17:17:10.850Z,101622.02
2017-11-08T17:19:36.653Z,101617.83
2017-11-08T17:22:04.273Z,101618.83
2017-11-08T17:24:30.062Z,101616.86
2017-11-08T17:26:55.931Z,101618.12
2017-11-08T17:29:21.811Z,101616.80
2017-11-08T17:31:47.600Z,101616.63
2017-11-08T17:34:13.428Z,101614.86
2017-11-08T17:36:39.851Z,101615.31
2017-11-08T17:39:05.664Z,101609.30
2017-11-08T17:41:33.504Z,101612.79
2017-11-08T17:44:08.621Z,101614.77
2017-11-08T17:46:34.513Z,101618.17
2017-11-08T17:49:00.298Z,101617.23
2017-11-08T17:51:26.122Z,101614.20
2017-11-08T17:53:51.947Z,101611.88
2017-11-08T17:56:17.772Z,101621.72
2017-11-08T17:58:43.603Z,101617.63
2017-11-08T18:01:09.406Z,101622.23
2017-11-08T18:03:35.196Z,101627.86
2017-11-08T18:06:00.995Z,101629.60
2017-11-08T18:08:26.955Z,101625.99
2017-11-08T18:10:52.751Z,101629.75
2017-11-08T18:13:18.695Z,101628.78
2017-11-08T18:15:44.479Z,101636.19
2017-11-08T18:18:10.288Z,101638.58
2017-11-08T18:20:36.090Z,101638.94
2017-11-08T18:23:01.880Z,101634.27
2017-11-08T18:25:27.685Z,101635.62
2017-11-08T18:27:53.476Z,101642.58
2017-11-08T18:30:19.262Z,101637.77
2017-11-08T18:32:45.159Z,101636.08
2017-11-08T18:35:10.967Z,101637.67
2017-11-08T18:37:36.824Z,101644.66
2017-11-08T18:40:02.815Z,101640.66
2017-11-08T18:42:28.630Z,101634.39
2017-11-08T18:44:54.420Z,101645.14
2017-11-08T18:47:20.212Z,101647.37
2017-11-08T18:49:46.037Z,101650.80
2017-11-08T18:52:12.009Z,101651.37
2017-11-08T18:54:37.891Z,101658.56
2017-11-08T18:57:03.838Z,101661.55
2017-11-08T18:59:29.848Z,101664.16
2017-11-08T19:01:55.653Z,101665.52
2017-11-08T19:04:21.581Z,101658.84
2017-11-08T19:06:47.803Z,101663.83
2017-11-08T19:09:13.634Z,101659.05
2017-11-08T19:11:39.432Z,101658.41
2017-11-08T19:14:06.000Z,101650.05
2017-11-08T19:16:32.651Z,101656.45
2017-11-08T19:18:58.458Z,101662.03
2017-11-08T19:21:24.275Z,101659.31
2017-11-08T19:23:50.063Z,101669.83
2017-11-08T19:26:15.940Z,101668.31
2017-11-08T19:28:41.726Z,101666.99
2017-11-08T19:31:07.515Z,101675.61
2017-11-08T19:33:33.349Z,101681.98
2017-11-08T19:35:59.182Z,101687.08
2017-11-08T19:38:24.987Z,101689.30
2017-11-08T19:40:51.110Z,101690.56
2017-11-08T19:43:24.059Z,101688.91
2017-11-08T19:45:50.053Z,101687.55
2017-11-08T19:48:15.847Z,101693.00
2017-11-08T19:50:41.639Z,101689.30
2017-11-08T19:53:07.604Z,101683.28
2017-11-08T19:55:33.390Z,101687.59
2017-11-08T19:57:59.567Z,101688.09
2017-11-08T20:00:25.366Z,101684.94
2017-11-08T20:02:51.290Z,101694.69
2017-11-08T20:05:17.076Z,101699.00
2017-11-08T20:07:42.908Z,101704.27
2017-11-08T20:10:08.868Z,101705.08
2017-11-08T20:12:34.778Z,101695.59
2017-11-08T20:15:00.711Z,101699.75
2017-11-08T20:17:26.624Z,101696.26
2017-11-08T20:19:52.541Z,101692.28
2017-11-08T20:22:18.322Z,101691.89
2017-11-08T20:24:44.188Z,101693.45
2017-11-08T20:27:10.110Z,101690.92
2017-11-08T20:29:36.395Z,101693.73
2017-11-08T20:32:02.354Z,101691.71
2017-11-08T20:34:28.285Z,101692.34
2017-11-08T20:36:54.129Z,101689.48
2017-11-08T20:39:19.985Z,101685.23
2017-11-08T20:41:45.901Z,101682.11
2017-11-08T20:44:11.941Z,101679.66
2017-11-08T20:46:37.796Z,101689.11
2017-11-08T20:49:03.627Z,101688.28
2017-11-08T20:51:29.603Z,101691.11
2017-11-08T20:53:55.401Z,101684.69
2017-11-08T20:56:21.194Z,101677.71
2017-11-08T20:58:46.991Z,101685.17
2017-11-08T21:01:13.570Z,101687.02
2017-11-08T21:03:39.407Z,101693.88
2017-11-08T21:06:05.221Z,101693.76
2017-11-08T21:08:31.479Z,101691.69
2017-11-08T21:10:57.314Z,101685.59
2017-11-08T21:13:23.116Z,101679.84
2017-11-08T21:15:48.946Z,101685.48
2017-11-08T21:18:14.748Z,101676.66
2017-11-08T21:20:42.857Z,101678.47
2017-11-08T21:23:08.710Z,101676.33
2017-11-08T21:25:34.495Z,101674.28
2017-11-08T21:28:00.356Z,101676.53
2017-11-08T21:30:26.147Z,101678.73
2017-11-08T21:32:52.049Z,101680.84
2017-11-08T21:35:17.969Z,101678.83
2017-11-08T21:37:43.749Z,101684.06
2017-11-08T21:40:09.561Z,101682.86
2017-11-08T21:42:35.343Z,101679.46
2017-11-08T21:45:01.194Z,101675.27
2017-11-08T21:47:26.971Z,101681.48
2017-11-08T21:49:53.367Z,101684.64
2017-11-08T21:52:19.141Z,101686.77
2017-11-08T21:54:44.957Z,101690.50
2017-11-08T21:57:10.782Z,101683.70
2017-11-08T21:59:37.442Z,101683.46
2017-11-08T22:02:03.305Z,101685.87
2017-11-08T22:04:29.105Z,101685.59
2017-11-08T22:06:54.962Z,101688.16
2017-11-08T22:09:20.774Z,101692.91
2017-11-08T22:11:46.558Z,101697.80
2017-11-08T22:14:12.352Z,101702.13
2017-11-08T22:16:38.351Z,101699.12
2017-11-08T22:19:04.326Z,101695.95
2017-11-08T22:21:30.123Z,101698.21
2017-11-08T22:23:55.912Z,101695.41
2017-11-08T22:26:21.722Z,101695.72
2017-11-08T22:28:47.517Z,101691.59
2017-11-08T22:31:13.369Z,101692.02
2017-11-08T22:33:39.157Z,101690.69
2017-11-08T22:36:04.942Z,101682.31
2017-11-08T22:38:30.725Z,101680.87
2017-11-08T22:40:56.552Z,101681.95
2017-11-08T22:43:22.335Z,101684.22
2017-11-08T22:45:48.170Z,101689.30
2017-11-08T22:48:13.958Z,101682.23
2017-11-08T22:50:39.801Z,101690.72
2017-11-08T22:53:05.583Z,101688.19
2017-11-08T22:55:31.847Z,101689.94
2017-11-08T22:57:57.663Z,101683.52
2017-11-08T23:00:23.453Z,101682.95
2017-11-08T23:02:49.365Z,101684.30
2017-11-08T23:05:15.153Z,101678.02
2017-11-08T23:07:40.976Z,101678.86
2017-11-08T23:10:06.807Z,101677.34
2017-11-08T23:12:32.590Z,101673.98
2017-11-08T23:14:58.375Z,101677.32
2017-11-08T23:17:24.171Z,101675.06
2017-11-08T23:19:49.975Z,101673.95
2017-11-08T23:22:15.774Z,101671.90
2017-11-08T23:24:41.599Z,101667.75
2017-11-08T23:27:07.390Z,101665.73
2017-11-08T23:29:33.234Z,101666.18
2017-11-08T23:31:59.030Z,101669.49
2017-11-08T23:34:24.862Z,101670.03
2017-11-08T23:36:50.661Z,101666.48
2017-11-08T23:39:16.453Z,101665.61
2017-11-08T23:41:42.277Z,101667.14
2017-11-08T23:44:08.067Z,101667.47
2017-11-08T23:46:33.881Z,101665.19
2017-11-08T23:48:59.675Z,101659.95
2017-11-08T23:51:25.482Z,101652.42
2017-11-08T23:53:51.268Z,101653.87
2017-11-08T23:56:17.053Z,101651.83
2017-11-08T23:58:42.834Z,101645.14
